Time;durP1;ratioP1;P1;durP2;ratioP2;P2;SDS_P1;SDS_P2;PMS_P1;PMS_P2;Temp;Humidity;BMP_temperature;BMP_pressure;BME280_temperature;BME280_humidity;BME280_pressure;Samples;Min_cycle;Max_cycle;Signal;HPM_P1;HPM_P2
2022/03/31 00:00:39;;;;;;;13.77;8.30;;;9.90;99.90;;;;;;5055687;28;20198;-65
2022/03/31 00:03:08;;;;;;;9.40;7.87;;;9.80;99.90;;;;;;5055998;28;20235;-64
2022/03/31 00:05:34;;;;;;;10.13;7.50;;;9.90;99.90;;;;;;5055608;28;20411;-65
2022/03/31 00:08:13;;;;;;;11.83;8.53;;;9.90;99.90;;;;;;5055511;28;20434;-65
2022/03/31 00:10:47;;;;;;;9.70;7.17;;;9.90;99.90;;;;;;5055322;28;20444;-65
2022/03/31 00:13:18;;;;;;;13.90;8.27;;;9.90;99.90;;;;;;5054830;28;20836;-64
2022/03/31 00:15:45;;;;;;;17.40;9.00;;;10.00;99.90;;;;;;5055343;28;20510;-65
2022/03/31 00:18:12;;;;;;;11.00;7.73;;;10.00;99.90;;;;;;5055203;28;20421;-65
2022/03/31 00:34:07;;;;;;;11.67;8.23;;;9.70;99.90;;;;;;5073305;28;20388;-65
2022/03/31 00:36:32;;;;;;;13.40;8.90;;;9.50;99.90;;;;;;5054889;28;20414;-65
2022/03/31 00:41:42;;;;;;;12.47;9.03;;;9.30;99.90;;;;;;5073171;28;20206;-65
2022/03/31 00:44:09;;;;;;;12.87;9.07;;;9.30;99.90;;;;;;5054757;28;20458;-65
2022/03/31 00:46:35;;;;;;;13.80;8.80;;;9.30;99.90;;;;;;5054795;28;20551;-65
2022/03/31 00:49:05;;;;;;;12.53;7.43;;;9.30;99.90;;;;;;5054702;28;20413;-65
2022/03/31 00:51:31;;;;;;;10.70;8.67;;;9.30;99.90;;;;;;5054886;28;20195;-64
2022/03/31 00:53:57;;;;;;;13.03;8.97;;;9.20;99.90;;;;;;5054723;28;20417;-65
2022/03/31 00:56:25;;;;;;;13.47;8.80;;;9.30;99.90;;;;;;5054555;28;20474;-64
2022/03/31 00:58:51;;;;;;;9.90;7.60;;;9.30;99.90;;;;;;5054505;28;20984;-65
2022/03/31 01:01:18;;;;;;;13.97;8.17;;;9.30;99.90;;;;;;5054606;28;20433;-65
2022/03/31 01:03:44;;;;;;;15.73;8.60;;;9.20;99.90;;;;;;5054349;28;20517;-65
2022/03/31 01:06:10;;;;;;;15.77;9.17;;;9.20;99.90;;;;;;5054449;28;20422;-65
2022/03/31 01:08:36;;;;;;;14.80;8.63;;;9.20;99.90;;;;;;5054394;28;20179;-65
2022/03/31 01:11:01;;;;;;;14.20;8.73;;;9.20;99.90;;;;;;5053481;28;20195;-65
2022/03/31 01:13:27;;;;;;;10.53;8.97;;;9.20;99.90;;;;;;5054391;28;20827;-65
2022/03/31 01:15:54;;;;;;;14.07;9.20;;;9.20;99.90;;;;;;5054202;28;20684;-65
2022/03/31 01:18:20;;;;;;;13.10;9.93;;;9.10;99.90;;;;;;5054348;28;20199;-65
2022/03/31 01:20:46;;;;;;;13.27;9.53;;;9.10;99.90;;;;;;5054005;28;20433;-65
2022/03/31 01:23:15;;;;;;;13.10;8.63;;;9.00;99.90;;;;;;5054242;28;20457;-65
2022/03/31 01:25:42;;;;;;;15.00;8.83;;;8.90;99.90;;;;;;5053817;28;20422;-64
2022/03/31 01:28:08;;;;;;;13.03;8.57;;;8.90;99.90;;;;;;5053390;28;20409;-65
2022/03/31 01:30:34;;;;;;;17.73;8.27;;;8.90;99.90;;;;;;5053997;28;20804;-65
2022/03/31 01:33:00;;;;;;;12.43;9.27;;;9.00;99.90;;;;;;5054095;28;20520;-65
2022/03/31 01:35:26;;;;;;;17.27;11.50;;;9.00;99.90;;;;;;5054327;28;20421;-65
2022/03/31 01:37:52;;;;;;;14.73;9.60;;;9.00;99.90;;;;;;5053933;28;20608;-65
2022/03/31 01:40:18;;;;;;;16.30;10.50;;;8.90;99.90;;;;;;5053725;28;20516;-65
2022/03/31 01:42:44;;;;;;;13.60;9.03;;;8.90;99.90;;;;;;5053726;28;20568;-65
2022/03/31 01:45:20;;;;;;;15.77;10.40;;;8.90;99.90;;;;;;5053954;28;20722;-65
2022/03/31 01:47:46;;;;;;;13.63;10.20;;;8.90;99.90;;;;;;5053834;28;20413;-65
2022/03/31 01:50:12;;;;;;;16.80;10.27;;;8.80;99.90;;;;;;5053773;28;20447;-65
2022/03/31 01:52:39;;;;;;;17.00;10.80;;;8.80;99.90;;;;;;5053647;28;20270;-65
2022/03/31 01:55:06;;;;;;;15.27;8.80;;;8.80;99.90;;;;;;5054164;28;21003;-64
2022/03/31 01:57:32;;;;;;;14.73;10.07;;;8.80;99.90;;;;;;5053505;28;20429;-65
2022/03/31 02:00:02;;;;;;;14.40;9.80;;;8.80;99.90;;;;;;5053679;28;20439;-65
2022/03/31 02:02:28;;;;;;;16.67;10.50;;;8.90;99.90;;;;;;5053738;28;20202;-65
2022/03/31 02:04:54;;;;;;;13.67;8.77;;;8.90;99.90;;;;;;5053594;28;20429;-64
2022/03/31 02:07:20;;;;;;;15.50;10.30;;;8.90;99.90;;;;;;5053435;28;20483;-65
2022/03/31 02:09:46;;;;;;;18.27;11.33;;;8.90;99.90;;;;;;5053587;28;20179;-64
2022/03/31 02:12:11;;;;;;;17.80;10.27;;;8.80;99.90;;;;;;5053577;28;20649;-65
2022/03/31 02:14:37;;;;;;;14.43;10.80;;;8.90;99.90;;;;;;5053397;28;20266;-64
2022/03/31 02:17:08;;;;;;;16.07;11.10;;;8.80;99.90;;;;;;5053534;28;20577;-65
2022/03/31 02:19:34;;;;;;;17.40;11.97;;;8.80;99.90;;;;;;5053671;28;20500;-65
2022/03/31 02:22:00;;;;;;;19.50;11.50;;;8.70;99.90;;;;;;5055878;28;20484;-65
2022/03/31 02:24:26;;;;;;;19.73;11.10;;;8.80;99.90;;;;;;5057686;28;20445;-65
2022/03/31 02:26:52;;;;;;;18.93;11.03;;;8.90;99.90;;;;;;5057242;28;20448;-64
2022/03/31 02:29:19;;;;;;;14.10;10.13;;;9.00;99.90;;;;;;5057637;28;20179;-65
2022/03/31 02:31:48;;;;;;;20.17;10.73;;;9.10;99.90;;;;;;5057283;28;20194;-65
2022/03/31 02:34:17;;;;;;;17.20;11.10;;;9.10;99.90;;;;;;5057312;28;20464;-65
2022/03/31 02:36:44;;;;;;;17.90;11.20;;;9.00;99.90;;;;;;5054407;28;20482;-64
2022/03/31 02:39:10;;;;;;;16.03;9.13;;;8.90;99.90;;;;;;5060844;28;20416;-65
2022/03/31 02:41:38;;;;;;;18.63;11.03;;;8.90;99.90;;;;;;5064582;28;20428;-65
2022/03/31 02:44:06;;;;;;;18.07;9.80;;;8.90;99.90;;;;;;5073900;28;20417;-65
2022/03/31 02:46:32;;;;;;;16.60;10.27;;;8.90;99.90;;;;;;5073566;28;20840;-65
2022/03/31 02:48:59;;;;;;;20.90;10.57;;;9.00;99.90;;;;;;5073745;28;20508;-65
2022/03/31 02:51:25;;;;;;;21.10;11.10;;;8.90;99.90;;;;;;5073725;28;20943;-65
2022/03/31 02:56:37;;;;;;;19.63;11.57;;;8.90;99.90;;;;;;5075103;28;20439;-64
2022/03/31 02:59:04;;;;;;;20.30;10.73;;;8.80;99.90;;;;;;5073512;28;20405;-64
2022/03/31 03:01:30;;;;;;;17.47;10.07;;;8.80;99.90;;;;;;5072862;28;20444;-65
2022/03/31 03:03:58;;;;;;;17.00;10.60;;;8.80;99.90;;;;;;5073193;28;20928;-65
2022/03/31 03:06:24;;;;;;;23.57;10.40;;;8.90;99.90;;;;;;5073456;28;20436;-65
2022/03/31 03:08:50;;;;;;;17.33;10.17;;;9.00;99.90;;;;;;5073264;28;20520;-65
2022/03/31 03:11:17;;;;;;;20.27;10.50;;;8.90;99.90;;;;;;5073393;28;20816;-65
2022/03/31 03:13:44;;;;;;;16.20;10.73;;;9.00;99.90;;;;;;5073067;28;20459;-65
2022/03/31 03:16:11;;;;;;;18.93;11.43;;;9.00;99.90;;;;;;5073328;28;20421;-65
2022/03/31 03:18:37;;;;;;;20.10;11.93;;;8.90;99.90;;;;;;5073077;28;20819;-65
2022/03/31 03:21:04;;;;;;;18.10;10.97;;;8.80;99.90;;;;;;5073120;28;20429;-65
2022/03/31 03:23:34;;;;;;;17.40;9.53;;;8.80;99.90;;;;;;5073037;28;20429;-65
2022/03/31 03:26:01;;;;;;;16.73;9.33;;;8.80;99.90;;;;;;5072798;28;20944;-64
2022/03/31 03:28:29;;;;;;;17.30;11.23;;;8.90;99.90;;;;;;5072788;28;20427;-64
2022/03/31 03:30:55;;;;;;;15.60;8.73;;;8.90;99.90;;;;;;5072885;28;20476;-64
2022/03/31 03:33:21;;;;;;;23.47;10.80;;;8.90;99.90;;;;;;5072043;28;20503;-65
2022/03/31 03:35:47;;;;;;;22.70;11.47;;;8.90;99.90;;;;;;5072895;28;20221;-64
2022/03/31 03:38:14;;;;;;;19.50;10.90;;;8.80;99.90;;;;;;5072855;28;20179;-64
2022/03/31 03:40:40;;;;;;;19.37;11.13;;;8.80;99.90;;;;;;5072719;28;20475;-65
2022/03/31 03:43:07;;;;;;;17.63;11.57;;;8.80;99.90;;;;;;5072795;28;20830;-64
2022/03/31 03:45:32;;;;;;;20.53;11.90;;;8.70;99.90;;;;;;5072733;28;20508;-65
2022/03/31 03:47:59;;;;;;;24.90;11.57;;;8.60;99.90;;;;;;5072528;28;20579;-65
2022/03/31 03:50:25;;;;;;;25.17;11.50;;;8.70;99.90;;;;;;5072679;28;20199;-64
2022/03/31 03:52:52;;;;;;;23.30;11.67;;;8.70;99.90;;;;;;5072336;28;20456;-65
2022/03/31 03:55:18;;;;;;;20.77;10.50;;;8.50;99.90;;;;;;5072374;28;20417;-65
2022/03/31 03:57:44;;;;;;;24.63;13.97;;;8.50;99.90;;;;;;5072260;28;20421;-64
2022/03/31 04:00:10;;;;;;;27.83;18.87;;;8.50;99.90;;;;;;5072466;28;20960;-65
2022/03/31 04:02:38;;;;;;;24.70;14.63;;;8.50;99.90;;;;;;5072486;28;20425;-64
2022/03/31 04:05:04;;;;;;;21.20;12.00;;;8.50;99.90;;;;;;5072452;28;20429;-65
2022/03/31 04:07:30;;;;;;;19.00;11.27;;;8.30;99.90;;;;;;5072147;28;20413;-64
2022/03/31 04:09:55;;;;;;;21.07;11.30;;;8.30;99.90;;;;;;5072341;28;20443;-64
2022/03/31 04:12:22;;;;;;;18.40;10.30;;;8.40;99.90;;;;;;5072195;28;20210;-64
2022/03/31 04:17:17;;;;;;;19.10;11.50;;;8.30;99.90;;;;;;5075329;22;20855;-81
2022/03/31 04:19:43;;;;;;;22.10;12.10;;;8.20;99.90;;;;;;5052795;28;20505;-81
2022/03/31 04:22:09;;;;;;;21.07;11.97;;;8.20;99.90;;;;;;5035919;28;20555;-81
2022/03/31 04:24:35;;;;;;;16.60;10.33;;;8.10;99.90;;;;;;5035927;28;20217;-81
2022/03/31 04:27:00;;;;;;;25.23;11.63;;;8.20;99.90;;;;;;5052086;28;20438;-82
2022/03/31 04:29:26;;;;;;;22.70;10.80;;;8.10;99.90;;;;;;5053929;28;20332;-81
2022/03/31 04:31:51;;;;;;;20.57;11.97;;;8.10;99.90;;;;;;5053585;28;20172;-81
2022/03/31 04:34:19;;;;;;;22.17;12.40;;;8.00;99.90;;;;;;5052343;28;20216;-82
2022/03/31 04:36:45;;;;;;;20.77;12.30;;;8.00;99.90;;;;;;5053354;28;20236;-82
2022/03/31 04:39:12;;;;;;;22.33;13.10;;;8.00;99.90;;;;;;5052523;28;20414;-81
2022/03/31 04:41:39;;;;;;;22.37;11.10;;;8.00;99.90;;;;;;5052248;28;20777;-81
2022/03/31 04:44:05;;;;;;;22.37;12.40;;;8.10;99.90;;;;;;5051674;28;20858;-82
2022/03/31 04:46:30;;;;;;;19.10;12.17;;;8.10;99.90;;;;;;5051602;28;20536;-81
2022/03/31 04:48:56;;;;;;;19.10;9.70;;;8.10;99.90;;;;;;5035521;28;20202;-81
2022/03/31 04:51:21;;;;;;;22.90;11.97;;;8.10;99.90;;;;;;5051857;28;20183;-80
2022/03/31 04:53:47;;;;;;;22.53;11.40;;;8.00;99.90;;;;;;5035175;28;20678;-82
2022/03/31 04:56:14;;;;;;;21.87;11.07;;;8.00;99.90;;;;;;5052835;28;20188;-81
2022/03/31 04:58:39;;;;;;;18.77;11.23;;;7.90;99.90;;;;;;5051677;28;20266;-82
2022/03/31 05:01:05;;;;;;;22.70;10.47;;;7.90;99.90;;;;;;5052750;28;20979;-81
2022/03/31 05:03:31;;;;;;;21.80;11.27;;;8.00;99.90;;;;;;5035220;28;20194;-81
2022/03/31 05:05:56;;;;;;;27.20;11.90;;;7.90;99.90;;;;;;5051570;28;20226;-81
2022/03/31 05:08:22;;;;;;;19.67;12.40;;;7.80;99.90;;;;;;5051225;28;20187;-81
2022/03/31 05:10:47;;;;;;;20.50;11.90;;;7.70;99.90;;;;;;5034877;28;20180;-81
2022/03/31 05:13:13;;;;;;;22.50;10.63;;;7.80;99.90;;;;;;5034806;28;20261;-81
2022/03/31 05:15:39;;;;;;;23.17;10.57;;;7.90;99.90;;;;;;5034574;28;20222;-81
2022/03/31 05:18:05;;;;;;;20.70;10.50;;;7.90;99.90;;;;;;5034682;28;20183;-81
2022/03/31 05:20:31;;;;;;;19.67;12.80;;;7.80;99.90;;;;;;5051283;28;20191;-81
2022/03/31 05:22:57;;;;;;;19.20;11.20;;;7.80;99.90;;;;;;5051257;28;20421;-81
2022/03/31 05:25:22;;;;;;;21.93;11.57;;;7.80;99.90;;;;;;5052595;28;20857;-81
2022/03/31 05:27:49;;;;;;;18.90;11.87;;;7.80;99.90;;;;;;5034385;28;20505;-82
2022/03/31 05:30:18;;;;;;;17.80;10.43;;;7.80;99.90;;;;;;5034359;28;20666;-82
2022/03/31 05:32:45;;;;;;;18.57;10.60;;;7.80;99.90;;;;;;5052306;28;20454;-82
2022/03/31 05:35:11;;;;;;;17.23;9.57;;;7.80;99.90;;;;;;5052165;28;20874;-81
2022/03/31 05:37:38;;;;;;;27.13;11.83;;;7.80;99.90;;;;;;5050794;28;20503;-82
2022/03/31 05:40:05;;;;;;;20.77;11.87;;;7.70;99.90;;;;;;5051141;28;20520;-82
2022/03/31 05:42:32;;;;;;;21.20;11.37;;;7.70;99.90;;;;;;5034334;28;20794;-81
2022/03/31 05:45:01;;;;;;;18.27;10.20;;;7.80;99.90;;;;;;5051957;28;20417;-81
2022/03/31 05:47:26;;;;;;;18.63;11.20;;;7.80;99.90;;;;;;5051792;28;20429;-80
2022/03/31 05:49:52;;;;;;;18.60;10.47;;;7.80;99.90;;;;;;5050793;28;20509;-81
2022/03/31 05:52:18;;;;;;;25.40;10.80;;;7.80;99.90;;;;;;5052140;28;20178;-81
2022/03/31 05:54:44;;;;;;;22.47;12.27;;;7.80;99.90;;;;;;5051957;28;20418;-81
2022/03/31 05:57:10;;;;;;;19.40;11.00;;;7.80;99.90;;;;;;5050267;28;20647;-80
2022/03/31 05:59:36;;;;;;;23.43;10.03;;;7.70;99.90;;;;;;5034111;28;20429;-81
2022/03/31 06:02:02;;;;;;;17.53;10.03;;;7.70;99.90;;;;;;5033889;28;20179;-81
2022/03/31 06:04:28;;;;;;;23.47;11.63;;;7.70;99.90;;;;;;5034130;28;20233;-82
2022/03/31 06:06:53;;;;;;;29.43;10.77;;;7.70;99.90;;;;;;5051524;28;20486;-81
2022/03/31 06:09:19;;;;;;;17.50;9.90;;;7.60;99.90;;;;;;5051918;28;20447;-81
2022/03/31 06:11:44;;;;;;;20.80;10.43;;;7.60;99.90;;;;;;5050412;28;20525;-82
2022/03/31 06:14:11;;;;;;;23.50;11.57;;;7.60;99.90;;;;;;5051867;28;20571;-82
2022/03/31 06:16:37;;;;;;;22.03;9.97;;;7.60;99.90;;;;;;5051061;28;20218;-81
2022/03/31 06:19:03;;;;;;;21.37;11.57;;;7.60;99.90;;;;;;5050815;28;20417;-81
2022/03/31 06:21:29;;;;;;;22.97;11.37;;;7.60;99.90;;;;;;5051004;28;20422;-82
2022/03/31 06:23:54;;;;;;;18.80;10.93;;;7.70;99.90;;;;;;5052091;28;21007;-81
2022/03/31 06:26:20;;;;;;;25.20;10.40;;;7.70;99.90;;;;;;5051773;28;20206;-81
2022/03/31 06:28:46;;;;;;;20.73;11.30;;;7.70;99.90;;;;;;5050570;28;20183;-81
2022/03/31 06:31:12;;;;;;;18.87;10.33;;;7.80;99.90;;;;;;5050706;28;20213;-81
2022/03/31 06:33:37;;;;;;;21.63;10.90;;;7.70;99.90;;;;;;5050392;28;20202;-81
2022/03/31 06:36:04;;;;;;;21.23;11.20;;;7.80;99.90;;;;;;5051792;28;20435;-81
2022/03/31 06:38:29;;;;;;;19.43;10.63;;;7.90;99.90;;;;;;5051590;28;20267;-81
2022/03/31 06:41:10;;;;;;;19.87;10.77;;;7.90;99.90;;;;;;5051827;28;20489;-81
2022/03/31 06:43:37;;;;;;;22.50;10.97;;;8.00;99.90;;;;;;5051710;28;20156;-80
2022/03/31 06:46:03;;;;;;;21.73;10.73;;;8.10;99.90;;;;;;5051539;28;20447;-82
2022/03/31 06:48:30;;;;;;;19.00;10.67;;;8.20;99.90;;;;;;5050148;28;20421;-81
2022/03/31 06:50:57;;;;;;;20.33;10.60;;;8.20;99.90;;;;;;5050468;28;20414;-80
2022/03/31 06:53:23;;;;;;;19.00;10.00;;;8.30;99.90;;;;;;5050107;28;20459;-81
2022/03/31 06:55:48;;;;;;;22.70;11.17;;;8.30;99.90;;;;;;5050179;28;20430;-81
2022/03/31 06:58:15;;;;;;;19.73;9.60;;;8.40;99.90;;;;;;5033420;28;20467;-82
2022/03/31 07:00:41;;;;;;;20.87;10.10;;;8.50;99.90;;;;;;5051368;28;20174;-81
2022/03/31 07:03:06;;;;;;;19.03;11.00;;;8.50;99.90;;;;;;5050206;28;20525;-81
2022/03/31 07:05:36;;;;;;;18.97;10.30;;;8.60;99.90;;;;;;5051493;28;20447;-80
2022/03/31 07:08:02;;;;;;;17.47;9.57;;;8.60;99.90;;;;;;5051976;28;20172;-81
2022/03/31 07:10:27;;;;;;;19.00;10.67;;;8.80;99.90;;;;;;5053721;28;20422;-81
2022/03/31 07:12:53;;;;;;;16.40;10.30;;;8.90;99.90;;;;;;5037037;28;20457;-81
2022/03/31 07:15:19;;;;;;;17.70;10.10;;;8.90;99.90;;;;;;5037165;28;20211;-81
2022/03/31 07:18:10;;;;;;;16.50;8.90;;;9.00;99.90;;;;;;5054725;28;20168;-80
2022/03/31 07:20:36;;;;;;;15.63;8.87;;;8.90;99.90;;;;;;5066205;28;20414;-82
2022/03/31 07:23:12;;;;;;;15.07;8.57;;;8.80;99.90;;;;;;5069733;28;20460;-81
2022/03/31 07:25:38;;;;;;;16.40;10.00;;;8.80;99.90;;;;;;5074502;28;20441;-82
2022/03/31 07:28:05;;;;;;;17.97;9.50;;;8.70;99.90;;;;;;5074514;28;20450;-81
2022/03/31 07:30:31;;;;;;;18.07;8.10;;;8.70;99.90;;;;;;5064853;28;20418;-80
2022/03/31 07:33:01;;;;;;;14.00;8.63;;;8.70;99.90;;;;;;5059339;28;20465;-81
2022/03/31 07:35:29;;;;;;;14.67;8.87;;;8.80;99.90;;;;;;5045002;28;20226;-80
2022/03/31 07:37:56;;;;;;;14.00;8.17;;;8.80;99.90;;;;;;5055357;28;20906;-81
2022/03/31 07:40:23;;;;;;;14.20;8.87;;;8.70;99.90;;;;;;5056163;28;20410;-82
2022/03/31 07:42:49;;;;;;;18.60;9.20;;;8.70;99.90;;;;;;5058816;28;20479;-85
2022/03/31 07:45:14;;;;;;;15.10;9.00;;;8.70;99.90;;;;;;5049874;28;20444;-86
2022/03/31 07:47:41;;;;;;;14.07;8.43;;;8.80;99.90;;;;;;5058271;28;20436;-84
2022/03/31 07:50:09;;;;;;;20.67;10.07;;;9.00;99.90;;;;;;5057345;28;20178;-85
2022/03/31 07:52:35;;;;;;;19.47;8.90;;;9.00;99.90;;;;;;5057028;28;20457;-84
2022/03/31 07:55:04;;;;;;;13.80;8.70;;;9.10;99.90;;;;;;5055954;28;20417;-85
2022/03/31 07:57:30;;;;;;;19.77;10.37;;;9.10;99.90;;;;;;5056308;28;20799;-84
2022/03/31 07:59:56;;;;;;;15.17;9.10;;;9.20;99.90;;;;;;5056042;28;20880;-85
2022/03/31 08:02:24;;;;;;;20.07;8.73;;;9.30;99.90;;;;;;5057205;28;20818;-85
2022/03/31 08:04:50;;;;;;;12.97;8.77;;;9.30;99.90;;;;;;5056555;28;20887;-84
2022/03/31 08:07:16;;;;;;;18.07;9.50;;;9.40;99.90;;;;;;5074828;28;20410;-84
2022/03/31 08:09:42;;;;;;;16.10;8.90;;;9.50;99.90;;;;;;5075091;28;20413;-83
2022/03/31 08:12:08;;;;;;;13.47;7.63;;;9.50;99.90;;;;;;5073982;28;20178;-83
2022/03/31 08:14:34;;;;;;;13.00;8.43;;;9.50;99.90;;;;;;5056711;28;20179;-82
2022/03/31 08:16:59;;;;;;;14.63;9.27;;;9.40;99.90;;;;;;5073388;28;20461;-82
2022/03/31 08:19:27;;;;;;;16.13;8.73;;;9.30;99.90;;;;;;5073280;28;20416;-81
2022/03/31 08:21:53;;;;;;;13.27;8.07;;;9.30;99.90;;;;;;5073827;28;20782;-82
2022/03/31 08:24:18;;;;;;;12.90;8.73;;;9.20;99.90;;;;;;5055720;28;20426;-82
2022/03/31 08:26:46;;;;;;;16.60;8.33;;;9.10;99.90;;;;;;5073420;28;20209;-83
2022/03/31 08:29:12;;;;;;;16.20;9.70;;;9.00;99.90;;;;;;5055878;28;20729;-84
2022/03/31 08:31:38;;;;;;;17.43;8.30;;;8.90;99.90;;;;;;5054971;28;20500;-85
2022/03/31 08:34:05;;;;;;;16.80;9.90;;;8.80;99.90;;;;;;5055581;28;20461;-83
2022/03/31 08:36:31;;;;;;;14.80;8.00;;;8.80;99.90;;;;;;5061435;28;20452;-83
2022/03/31 08:38:58;;;;;;;15.50;9.67;;;8.80;99.90;;;;;;5065772;28;20421;-83
2022/03/31 08:41:26;;;;;;;14.43;8.17;;;8.80;99.90;;;;;;5071818;28;20462;-84
2022/03/31 08:43:52;;;;;;;16.03;9.27;;;8.80;99.90;;;;;;5072108;28;20432;-85
2022/03/31 08:46:18;;;;;;;13.83;9.00;;;8.80;99.90;;;;;;5072050;28;20493;-82
2022/03/31 08:48:44;;;;;;;14.40;8.33;;;8.70;99.90;;;;;;5072655;28;20417;-84
2022/03/31 08:51:10;;;;;;;16.30;7.87;;;8.70;99.90;;;;;;5073653;28;20417;-84
2022/03/31 08:53:36;;;;;;;13.60;7.73;;;8.80;99.90;;;;;;5072133;28;20214;-83
2022/03/31 08:56:03;;;;;;;15.73;8.30;;;8.70;99.90;;;;;;5071584;28;20478;-84
2022/03/31 08:58:28;;;;;;;17.60;9.13;;;8.70;99.90;;;;;;5071696;28;20417;-83
2022/03/31 09:00:54;;;;;;;17.37;9.27;;;8.50;99.90;;;;;;5072081;28;20420;-84
2022/03/31 09:03:20;;;;;;;15.30;8.23;;;8.60;99.90;;;;;;5071524;28;20175;-84
2022/03/31 09:05:51;;;;;;;15.00;7.77;;;8.60;99.90;;;;;;5072970;28;20206;-84
2022/03/31 09:08:18;;;;;;;14.60;8.60;;;8.70;99.90;;;;;;5073617;28;21066;-84
2022/03/31 09:10:49;;;;;;;20.17;10.00;;;8.80;99.90;;;;;;5074635;28;20418;-84
2022/03/31 09:13:23;;;;;;;19.47;10.00;;;8.90;99.90;;;;;;5073326;28;20453;-82
2022/03/31 09:15:50;;;;;;;15.80;8.67;;;9.00;99.90;;;;;;5073520;28;20824;-82
2022/03/31 09:18:19;;;;;;;19.00;9.03;;;9.00;99.90;;;;;;5072030;28;20409;-84
2022/03/31 09:20:47;;;;;;;18.90;9.60;;;9.10;99.90;;;;;;5049925;28;20437;-80
2022/03/31 09:23:21;;;;;;;15.20;8.37;;;9.10;99.90;;;;;;5043391;28;20428;-82
2022/03/31 09:25:47;;;;;;;12.13;8.57;;;9.10;99.90;;;;;;5065225;28;20450;-82
2022/03/31 09:28:23;;;;;;;11.70;7.93;;;9.20;99.90;;;;;;5062606;28;20429;-82
2022/03/31 09:30:52;;;;;;;13.20;9.00;;;9.20;99.90;;;;;;5070875;28;20411;-82
2022/03/31 09:33:33;;;;;;;19.43;9.50;;;9.10;99.90;;;;;;5069993;28;20462;-83
2022/03/31 09:36:03;;;;;;;20.30;10.70;;;9.10;99.90;;;;;;5071077;28;20437;-82
2022/03/31 09:38:29;;;;;;;15.67;8.07;;;9.20;99.90;;;;;;5072220;28;20407;-82
2022/03/31 09:40:55;;;;;;;14.97;8.30;;;9.30;99.90;;;;;;5071128;28;20413;-82
2022/03/31 09:43:21;;;;;;;17.57;9.23;;;9.40;99.90;;;;;;5072823;28;20428;-82
2022/03/31 09:45:48;;;;;;;15.07;8.40;;;9.50;99.90;;;;;;5056980;28;21014;-80
2022/03/31 09:48:21;;;;;;;13.93;8.50;;;9.40;99.90;;;;;;5075707;28;20419;-81
2022/03/31 09:50:48;;;;;;;18.20;8.20;;;9.40;99.90;;;;;;5076928;28;20417;-82
2022/03/31 09:53:15;;;;;;;14.27;8.80;;;9.40;99.90;;;;;;5059144;28;20455;-81
2022/03/31 09:55:42;;;;;;;18.23;10.83;;;9.30;99.90;;;;;;5077284;28;20437;-81
2022/03/31 09:58:08;;;;;;;16.77;8.97;;;9.10;99.90;;;;;;5075184;28;20488;-81
2022/03/31 10:00:34;;;;;;;13.83;8.30;;;9.10;99.90;;;;;;5074471;28;20500;-81
2022/03/31 10:03:00;;;;;;;18.33;9.33;;;9.20;99.90;;;;;;5074747;28;20421;-79
2022/03/31 10:05:27;;;;;;;15.20;8.60;;;9.10;99.90;;;;;;5056394;28;20445;-81
2022/03/31 10:07:54;;;;;;;18.00;9.70;;;9.10;99.90;;;;;;5071205;28;21076;-82
2022/03/31 10:10:20;;;;;;;18.50;8.37;;;9.10;99.90;;;;;;5071251;28;20421;-79
2022/03/31 10:13:18;;;;;;;17.10;8.90;;;9.10;99.90;;;;;;5072127;28;20867;-80
2022/03/31 10:15:46;;;;;;;17.70;8.97;;;9.10;99.90;;;;;;5052217;28;20257;-81
2022/03/31 10:18:16;;;;;;;16.80;9.17;;;9.10;99.90;;;;;;5072458;28;20408;-82
2022/03/31 10:20:59;;;;;;;15.23;8.10;;;9.10;99.90;;;;;;5087449;22;20579;-81
2022/03/31 10:26:25;;;;;;;16.37;8.60;;;9.10;99.90;;;;;;5094193;28;20512;-81
2022/03/31 10:29:08;;;;;;;19.13;8.77;;;9.10;99.90;;;;;;5077408;28;20489;-81
2022/03/31 10:31:54;;;;;;;15.63;9.13;;;9.20;99.90;;;;;;5075708;28;20737;-81
2022/03/31 10:34:19;;;;;;;20.40;9.93;;;9.10;99.90;;;;;;5090275;28;20465;-80
2022/03/31 10:36:50;;;;;;;16.57;9.97;;;9.20;99.90;;;;;;5091856;28;20418;-81
2022/03/31 10:39:21;;;;;;;15.93;8.60;;;9.20;99.90;;;;;;5090397;28;20247;-81
2022/03/31 10:41:47;;;;;;;15.83;8.53;;;9.00;99.90;;;;;;5096067;28;20763;-81
2022/03/31 10:44:12;;;;;;;13.80;8.73;;;9.00;99.90;;;;;;5095507;28;20761;-81
2022/03/31 10:46:39;;;;;;;17.30;8.17;;;9.20;99.90;;;;;;5081854;28;20446;-81
2022/03/31 10:49:10;;;;;;;17.50;8.77;;;9.30;99.90;;;;;;5087748;28;20205;-82
2022/03/31 10:51:38;;;;;;;15.00;8.70;;;9.20;99.90;;;;;;5096856;28;20419;-82
2022/03/31 10:54:05;;;;;;;19.90;9.93;;;9.20;99.90;;;;;;5079804;28;20456;-82
2022/03/31 10:56:32;;;;;;;17.03;9.43;;;9.30;99.90;;;;;;5098170;28;20421;-81
2022/03/31 10:59:00;;;;;;;14.53;9.50;;;9.40;99.90;;;;;;5097855;28;20427;-80
2022/03/31 11:01:29;;;;;;;13.87;8.50;;;9.30;99.90;;;;;;5097204;28;20470;-81
2022/03/31 11:04:01;;;;;;;14.57;8.60;;;9.50;99.90;;;;;;5096947;28;20655;-81
2022/03/31 11:06:27;;;;;;;19.17;10.00;;;9.60;99.90;;;;;;5096754;28;20439;-81
2022/03/31 11:08:52;;;;;;;13.80;8.77;;;9.50;99.90;;;;;;5078589;28;20445;-80
2022/03/31 11:11:19;;;;;;;16.30;8.37;;;9.50;99.90;;;;;;5097141;28;20209;-80
2022/03/31 11:13:45;;;;;;;15.33;8.13;;;9.60;99.90;;;;;;5096890;28;20205;-81
2022/03/31 11:16:11;;;;;;;19.97;10.40;;;9.60;99.90;;;;;;5097009;28;20776;-81
2022/03/31 11:18:36;;;;;;;19.63;9.20;;;9.50;99.90;;;;;;5096864;28;20235;-81
2022/03/31 11:21:03;;;;;;;15.67;8.17;;;9.50;99.90;;;;;;5078850;28;20222;-81
2022/03/31 11:23:31;;;;;;;15.33;8.37;;;9.40;99.90;;;;;;5097087;28;20175;-81
2022/03/31 11:25:57;;;;;;;16.90;9.00;;;9.30;99.90;;;;;;5097645;28;20923;-81
2022/03/31 11:28:27;;;;;;;16.13;9.60;;;9.30;99.90;;;;;;5096873;28;20405;-80
2022/03/31 11:30:54;;;;;;;14.30;9.60;;;9.30;99.90;;;;;;5096945;28;20475;-80
2022/03/31 11:33:20;;;;;;;16.03;8.70;;;9.40;99.90;;;;;;5097347;28;20456;-81
2022/03/31 11:35:51;;;;;;;16.93;8.40;;;9.50;99.90;;;;;;5097098;28;20404;-81
2022/03/31 11:38:19;;;;;;;12.93;8.40;;;9.60;99.90;;;;;;5078975;28;20405;-80
2022/03/31 11:40:47;;;;;;;15.13;8.53;;;9.50;99.90;;;;;;5078346;28;20482;-81
2022/03/31 11:43:15;;;;;;;13.17;8.80;;;9.70;99.90;;;;;;5079391;28;20429;-80
2022/03/31 11:45:46;;;;;;;14.10;7.57;;;9.70;99.90;;;;;;5096232;28;20421;-81
2022/03/31 11:48:16;;;;;;;15.40;8.50;;;9.80;99.90;;;;;;5096972;28;20393;-81
2022/03/31 11:50:51;;;;;;;14.70;7.83;;;9.80;99.90;;;;;;5096593;28;20435;-81
2022/03/31 11:53:24;;;;;;;16.57;9.53;;;9.80;99.90;;;;;;5096586;28;20547;-79
2022/03/31 11:56:01;;;;;;;14.50;8.90;;;9.90;99.90;;;;;;5096151;28;20408;-81
2022/03/31 11:58:33;;;;;;;17.90;8.40;;;9.80;99.90;;;;;;5096828;28;20419;-81
2022/03/31 12:00:59;;;;;;;14.27;8.77;;;9.80;99.90;;;;;;5077810;28;20440;-81
2022/03/31 12:03:33;;;;;;;14.70;8.10;;;10.00;99.90;;;;;;5090330;28;20428;-82
2022/03/31 12:06:00;;;;;;;13.27;7.10;;;9.60;99.90;;;;;;5093469;28;20185;-82
2022/03/31 12:08:27;;;;;;;16.40;8.70;;;9.70;99.90;;;;;;5095461;28;20420;-82
2022/03/31 12:10:54;;;;;;;16.07;9.30;;;9.70;99.90;;;;;;5096741;28;20444;-83
2022/03/31 12:13:22;;;;;;;19.87;9.03;;;9.70;99.90;;;;;;5097226;28;20448;-82
2022/03/31 12:15:48;;;;;;;15.97;10.43;;;9.60;99.90;;;;;;5095369;28;20420;-82
2022/03/31 12:18:16;;;;;;;15.40;8.73;;;9.50;99.90;;;;;;5092270;28;20444;-80
2022/03/31 12:20:43;;;;;;;18.83;9.63;;;9.40;99.90;;;;;;5095971;28;20210;-82
2022/03/31 12:23:23;;;;;;;18.60;10.10;;;9.40;99.90;;;;;;5096538;28;20416;-83
2022/03/31 12:25:49;;;;;;;16.57;9.27;;;9.50;99.90;;;;;;5078037;28;20927;-83
2022/03/31 12:28:18;;;;;;;17.17;10.10;;;9.50;99.90;;;;;;5079631;28;20416;-82
2022/03/31 12:30:52;;;;;;;15.77;8.90;;;9.40;99.90;;;;;;5078930;28;20432;-83
2022/03/31 12:33:19;;;;;;;13.67;7.90;;;9.40;99.90;;;;;;5098571;28;20929;-82
2022/03/31 12:35:57;;;;;;;18.97;9.03;;;9.40;99.90;;;;;;5097442;28;20404;-82
2022/03/31 12:38:32;;;;;;;14.30;9.40;;;9.30;99.90;;;;;;5095846;28;20468;-83
2022/03/31 12:40:58;;;;;;;21.20;9.43;;;9.30;99.90;;;;;;5096898;28;20929;-83
2022/03/31 12:43:25;;;;;;;15.63;8.30;;;9.40;99.90;;;;;;5084999;28;20500;-80
2022/03/31 12:45:51;;;;;;;15.77;9.50;;;9.20;99.90;;;;;;5093400;28;20428;-81
2022/03/31 12:48:17;;;;;;;13.10;8.40;;;9.10;99.90;;;;;;5092769;28;20519;-81
2022/03/31 12:50:44;;;;;;;16.10;9.53;;;9.00;99.90;;;;;;5091205;28;20539;-81
2022/03/31 12:53:10;;;;;;;13.40;8.83;;;9.00;99.90;;;;;;5077240;28;20199;-81
2022/03/31 12:55:37;;;;;;;13.97;7.60;;;8.80;99.90;;;;;;5085543;28;20415;-81
2022/03/31 12:58:05;;;;;;;16.67;9.43;;;8.90;99.90;;;;;;5092768;28;20174;-81
2022/03/31 13:00:32;;;;;;;15.93;8.63;;;8.80;99.90;;;;;;5092971;28;20428;-81
2022/03/31 13:02:59;;;;;;;16.27;8.60;;;8.80;99.90;;;;;;5093178;28;20817;-81
2022/03/31 13:05:26;;;;;;;13.47;8.87;;;8.70;99.90;;;;;;5092173;28;20418;-81
2022/03/31 13:07:53;;;;;;;15.57;8.00;;;8.60;99.90;;;;;;5092709;28;20413;-81